Caliente, Nevada Weather observations

Data are for observation ending at time listed.
 Day   Time    Ave.   Ave.  Ave.  Vector   Max.   Stn.    Total    Solar   Ave.  
  of    of     Air    Rel.  Wind   Wind    Wind   Baro.  Precip.   Rad.    Soil  
Year   Day     Temp.  Hum.  Speed  Dir.    Gust   Pres.                    Temp. 
2016   (PST)    F      %     mph   deg.    mph     mb.     in.     W/m2     F   
------------------------------------------------------------------------------
 272   10:40   74.1    24    3.4   346      7.9   848.4    0.00     623    75.9
 272   10:50   75.4    24    3.4     2      6.7   848.7    0.00     425    76.0
 272   11:00   75.5    23    2.9    18      6.4   848.4    0.00     282    75.8
 272   11:10   76.3    22    2.1   347      5.3   848.4    0.00     684    75.7
 272   11:20   77.7    22    2.2     8      5.8   848.4    0.00     664    75.5
 272   11:30   78.4    21    2.0   344      5.8   848.3    0.00     584    75.3
 272   11:40   79.2    21    2.3    10      5.9   849.0    0.00     780    75.2
 272   11:50   79.5    20    3.8   360      8.1   849.1    0.00     459    75.3
 272   12:00   78.6    21    3.3   285      7.7   849.0    0.00     292    75.5
 272   12:10   78.8    22    1.8   163      4.1   849.3    0.00     561    75.6
 272   12:20   80.9    19    2.0   214      4.8   848.7    0.00     704    75.7
 272   12:30   80.0    20    2.5   145      7.2   848.9    0.00     392    76.0
 272   12:40   79.7    20    3.2   262      7.3   849.1    0.00     322    76.2
 272   12:50   78.3    21    4.4   249     12.6   849.0    0.00     191    76.3
 272   13:00   79.0    21    4.0   251      8.3   848.3    0.00     456    76.5
 272   13:10   79.4    21    3.4   246      8.0   847.6    0.00     491    76.7
 272   13:20   79.5    21    5.0   246     10.1   848.0    0.00     495    76.9
 272   13:30   78.4    22    6.9   245     11.3   847.9    0.00     223    77.1
 272   13:40   78.7    22    7.2   250      9.9   847.4    0.00     392    77.1
 272   13:50   79.2    21    5.5   255      9.2   848.2    0.00     347    77.3
 272   14:00   78.6    22    5.0   256     11.2   849.0    0.00     114    77.2
 272   14:10   78.1    23    2.3   140      8.5   847.6    0.00      93    77.3
 272   14:20   78.1    21    3.2   160     10.4   847.4    0.00      86    77.3
 272   14:30   78.3    22    1.9   156      5.4   847.5    0.00     108    77.2
 272   14:40   78.3    21    3.2   205      8.5   847.8    0.00     181    77.2
 272   14:50   79.1    21    5.2   247     10.2   847.4    0.00     395    77.3
 272   15:00   79.9    21    6.3   246     10.9   848.6    0.00     481    77.3
 272   15:10   80.8    20    2.2   122      5.8   848.6    0.00     407    77.7
 272   15:20   80.4    21    3.5   127     12.2   849.2    0.00     269    77.8
 272   15:30   79.3    23    3.0   251      7.5   849.5    0.00     165    78.0
 272   15:40   78.6    23    4.3   119     11.6   848.8    0.00      96    78.2
 272   15:50   77.6    23    5.9   120     13.2   848.4    0.00      62    78.2
 272   16:00   76.9    24    5.5   143     16.5   848.5    0.00     108    78.3
 272   16:10   75.8    26    5.7   151     16.3   847.3    0.00      84    78.4
 272   16:20   75.5    26    3.8   156     10.6   847.7    0.00      44    78.4
 272   16:30   75.3    26    3.1   144      8.3   847.8    0.00      35    78.3
 272   16:40   75.0    27    2.3   145      5.4   848.0    0.00      32    78.2
 272   16:50   74.6    27    6.1   138     11.4   847.7    0.00      54    78.0
 272   17:00   74.4    28    3.4   146      9.2   848.1    0.00      28    77.9
 272   17:10   74.0    30    1.8   169      6.5   847.4    0.00      15    77.8
 272   17:20   73.4    31    2.2   151      9.3   847.5    0.00       9    77.8
 272   17:30   73.0    32    2.7   156      9.5   847.1    0.00       4    77.6
 272   17:40   72.3    33    2.0   160      6.0   847.2    0.00       3    77.5
 272   17:50   71.8    34    1.9   144      4.2   848.1    0.00       2    77.4
 272   18:00   71.4    34    1.4   156      3.7   847.7    0.00       1    77.0
 272   18:10   71.4    34    1.5   175      5.6   848.2    0.00       1    76.8
 272   18:20   71.3    35    0.4   229      2.1   847.9    0.00       1    76.9
 272   18:30   70.3    37    0.6   185      2.5   847.8    0.00       0    76.8
 272   18:40   69.4    38    1.5   102      2.8   848.0    0.00       0    76.6
 272   18:50   69.4    38    0.6   287      2.0   847.8    0.00       0    76.6
 272   19:00   69.3    39    0.5   192      1.5   848.0    0.00       0    76.4
 272   19:10   68.7    41    0.1   162      0.7   848.5    0.00       1    76.2
 272   19:20   68.1    45    0.3   157      1.2   848.8    0.00       0    76.3
 272   19:30   67.9    48    0.5   315      1.5   848.7    0.00       1    76.2
 272   19:40   67.4    49    1.2   163      2.1   849.1    0.00       1    75.9
 272   19:50   67.3    47    0.0   202      0.8   849.5    0.00       1    75.8
 272   20:00   67.6    46    0.6    43      2.9   849.4    0.00       1    75.8
 272   20:10   67.6    46    0.2   358      1.1   849.4    0.00       1    75.8
 272   20:20   67.7    47    0.7    71      2.6   849.6    0.00       1    75.7
 272   20:30   67.6    48    0.5   239      1.8   849.7    0.00       1    75.4
 272   20:40   66.8    48    0.7   176      1.5   848.7    0.00       1    75.5
 272   20:50   66.4    49    0.1   213      1.1   848.5    0.00       1    75.4
 272   21:00   66.7    48    0.2   203      1.2   849.1    0.00       2    75.4
 272   21:10   66.4    47    0.4   212      2.6   848.0    0.00       1    75.2
 272   21:20   66.7    48    1.2   318      2.6   847.1    0.00       1    75.2
 272   21:30   66.4    49    0.3   263      1.6   846.6    0.00       2    75.1
 272   21:40   65.9    50    0.8   161      1.7   848.4    0.00       0    75.0
 272   21:50   65.6    51    0.1   137      1.6   849.0    0.00       1    75.0
 272   22:00   65.8    51    0.2   114      0.9   850.4    0.00       1    74.9
 272   22:10   65.8    52    0.0    37      0.9   849.0    0.00       1    74.8
 272   22:20   65.5    52    0.1   234      1.1   849.5    0.00       1    74.7
 272   22:30   64.9    53    0.4   164      1.4   849.0    0.00       1    74.6
 272   22:40   64.5    53    0.0   153      0.9   848.8    0.00       1    74.6
 272   22:50   64.1    53    0.0     0      0.0   846.8    0.00       0    74.4
 272   23:00   63.5    54    0.1   174      0.7   847.9    0.00       0    74.5
 272   23:10   63.0    56    0.3   133      1.3   847.5    0.00       0    74.4
 272   23:20   63.0    54    0.2   183      1.5   847.1    0.00       0    74.1
 272   23:30   62.8    56    0.2   264      1.3   846.6    0.00       0    74.0
 272   23:40   61.6    57    0.3   122      1.7   848.6    0.00       0    73.8
 272   23:50   61.4    58    0.7   235      1.7   848.3    0.00       0    73.6
 273    0:00   61.1    60    0.8   248      2.2   848.1    0.00       0    73.5
 273    0:10   61.2    59    0.5   235      1.5   847.8    0.00       0    73.3
 273    0:20   61.1    60    0.0     0      0.0   848.1    0.00       0    73.3
 273    0:30   60.9    60    0.1   265      0.9   849.2    0.00       0    73.2
 273    0:40   60.7    61    0.2   258      1.0   849.5    0.00       0    73.2
 273    0:50   60.1    63    0.2   307      1.5   848.3    0.00       0    73.0
 273    1:00   59.5    64    0.8   135      2.1   847.2    0.00       0    72.9
 273    1:10   58.4    65    0.8   124      1.9   848.0    0.00       0    72.5
 273    1:20   58.7    63    0.3   269      1.3   846.1    0.00       0    72.6
 273    1:30   58.4    65    0.8   185      1.5   847.7    0.00       0    72.5
 273    1:40   58.3    62    2.1   121      4.5   847.2    0.00       0    72.2
 273    1:50   59.0    60    0.3   197      1.4   847.1    0.00       0    72.3
 273    2:00   58.3    63    0.7   223      3.1   847.0    0.00       0    72.1
 273    2:10   57.2    66    0.8   208      3.0   846.7    0.00       1    71.8
 273    2:20   56.6    67    0.8   165      1.8   845.6    0.00       1    71.8
 273    2:30   56.4    68    0.0     0      0.0   847.4    0.00       1    71.7
 273    2:40   56.2    67    0.2   354      1.3   846.9    0.00       0    71.6
 273    2:50   56.0    67    0.2   356      1.0   847.4    0.00       0    71.5
 273    3:00   55.4    68    0.3   127      1.7   847.4    0.00       0    71.3
 273    3:10   55.2    69    0.4   252      1.5   846.3    0.00       0    71.3
 273    3:20   54.6    71    0.5   113      1.6   847.7    0.00       0    71.1
 273    3:30   54.6    70    0.0     0      0.0   849.1    0.00       0    70.9
 273    3:40   54.2    70    0.7   142      2.1   847.4    0.00       0    70.7
 273    3:50   54.4    69    0.6   170      2.0   847.1    0.00       0    70.7
 273    4:00   54.7    68    0.7    27      2.4   846.7    0.00       0    70.5
 273    4:10   54.1    69    0.2   124      1.5   847.5    0.00       0    70.3
 273    4:20   53.3    71    0.8   139      2.2   848.3    0.00       0    70.2
 273    4:30   53.3    71    0.0   193      0.9   848.5    0.00       0    70.1
 273    4:40   53.5    70    0.8   247      3.9   847.7    0.00       0    70.0
 273    4:50   53.0    71    0.1   178      0.9   847.1    0.00       0    69.8
 273    5:00   52.9    72    1.1   225      4.7   845.6    0.00       0    69.7
 273    5:10   52.9    71    0.0   207      0.7   844.8    0.00       0    69.5
 273    5:20   52.6    71    0.3   105      1.9   845.9    0.00       0    69.4
 273    5:30   52.2    71    1.4   101      3.4   848.4    0.00       1    69.3
 273    5:40   52.3    71    0.7    51      2.1   846.4    0.00       3    69.2
 273    5:50   51.9    72    0.5   116      1.5   848.0    0.00       6    69.0
 273    6:00   51.7    72    0.6    48      2.1   848.0    0.00       8    68.8
 273    6:10   51.7    73    0.4   108      1.6   847.9    0.00      11    68.8
 273    6:20   51.7    75    0.5   168      1.7   845.9    0.00      15    68.6
 273    6:30   51.8    73    0.6   198      1.6   849.2    0.00      37    68.6
 273    6:40   52.8    68    1.3   334      2.4   848.1    0.00      47    68.5
 273    6:50   54.1    65    0.6    22      2.2   851.2    0.00      69    68.5
 273    7:00   54.2    66    0.5   134      1.8   849.7    0.00      82    68.4
 273    7:10   55.1    64    0.3   195      1.2   850.0    0.00     158    68.4
 273    7:20   57.5    59    0.3   306      1.8   850.3    0.00     118    68.4
 273    7:30   57.4    60    0.9   336      1.8   851.1    0.00     245    68.4
 273    7:40   58.6    59    0.3   126      1.3   850.2    0.00      93    68.5
 273    7:50   58.6    59    0.9   258      2.1   847.3    0.00     341    68.7
 273    8:00   60.0    56    0.8   297      2.1   849.0    0.00     308    68.8
 273    8:10   61.3    54    0.4   253      1.5   849.9    0.00     265    68.9
 273    8:20   61.4    55    0.7   333      2.0   851.8    0.00     169    69.0
 273    8:30   61.5    55    1.2   324      2.3   850.4    0.00     196    69.3
 273    8:40   62.2    54    0.5    63      1.6   851.9    0.00     255    69.5
 273    8:50   62.6    55    1.3   143      2.3   851.5    0.00     212    69.7
 273    9:00   64.0    53    0.8   146      1.6   851.8    0.00     418    69.9
 273    9:10   65.9    50    1.0   242      2.6   851.7    0.00     569    70.3
 273    9:20   67.6    48    0.7   250      2.3   850.8    0.00     585    70.8
 273    9:30   68.5    48    2.0   199      3.9   851.8    0.00     557    71.6
 273    9:40   68.6    47    1.5   243      4.8   852.3    0.00     573    72.4
 273    9:50   70.3    43    1.4   261      4.2   852.5    0.00     587    73.4
 273   10:00   71.0    42    1.6   214      3.6   851.8    0.00     617    74.4
 273   10:10   72.1    40    1.7   110      4.7   852.1    0.00     590    75.4
 273   10:20   71.6    41    2.6   107      4.5   852.0    0.00     415    76.1
 273   10:30   71.7    41    1.9   136      3.8   851.6    0.00     177    76.5

Return to Caliente, Nevada graphs page.


Western Regional Climate Center,wrcc@dri.edu